Time;durP1;ratioP1;P1;durP2;ratioP2;P2;SDS_P1;SDS_P2;PMS_P1;PMS_P2;Temp;Humidity;BMP_temperature;BMP_pressure;BME280_temperature;BME280_humidity;BME280_pressure;Samples;Min_cycle;Max_cycle;Signal;HPM_P1;HPM_P2
2022/02/28 00:01:57;;;;;;;41.28;24.92;;;;;;;3.08;75.02;102615.97;5000838;28;20080;-77
2022/02/28 00:04:23;;;;;;;42.88;25.52;;;;;;;2.98;75.51;102616.25;5001208;28;20052;-76
2022/02/28 00:06:48;;;;;;;43.95;26.40;;;;;;;3.06;75.16;102613.28;5002489;28;20025;-76
2022/02/28 00:09:14;;;;;;;41.88;25.83;;;;;;;3.02;75.09;102606.09;4999866;28;20408;-76
2022/02/28 00:11:40;;;;;;;48.55;27.83;;;;;;;3.01;75.06;102613.81;5001998;28;20061;-76
2022/02/28 00:14:05;;;;;;;43.15;24.92;;;;;;;3.08;75.28;102610.75;5001443;28;20070;-76
2022/02/28 00:16:31;;;;;;;46.40;27.13;;;;;;;3.12;75.13;102609.22;5000427;28;20042;-76
2022/02/28 00:18:56;;;;;;;46.90;27.02;;;;;;;3.15;75.35;102599.88;4999067;28;20038;-76
2022/02/28 00:21:21;;;;;;;45.50;24.70;;;;;;;3.21;75.13;102604.53;5002548;28;20086;-76
2022/02/28 00:23:47;;;;;;;43.80;26.23;;;;;;;3.19;74.97;102598.31;5000841;28;20074;-76
2022/02/28 00:26:12;;;;;;;40.65;23.75;;;;;;;3.14;75.28;102591.94;5000821;28;20091;-76
2022/02/28 00:28:38;;;;;;;41.05;24.05;;;;;;;3.13;75.25;102603.22;5014090;28;20088;-76
2022/02/28 00:31:03;;;;;;;43.97;23.83;;;;;;;3.15;74.85;102601.59;5005694;28;20056;-76
2022/02/28 00:33:29;;;;;;;43.03;24.17;;;;;;;3.18;74.84;102600.03;5002257;28;20033;-76
2022/02/28 00:35:54;;;;;;;43.90;26.58;;;;;;;3.22;74.53;102603.72;5008627;28;20029;-76
2022/02/28 00:38:21;;;;;;;40.45;25.13;;;;;;;3.21;74.80;102599.31;5001856;28;20082;-76
2022/02/28 00:40:46;;;;;;;45.58;26.73;;;;;;;3.24;75.35;102599.50;4999428;28;20030;-76
2022/02/28 00:43:11;;;;;;;48.42;28.20;;;;;;;3.22;75.15;102601.09;5000820;28;20053;-75
2022/02/28 00:45:37;;;;;;;45.15;26.08;;;;;;;3.22;74.94;102606.31;5000323;28;20038;-75
2022/02/28 00:48:02;;;;;;;46.15;25.08;;;;;;;3.19;75.05;102596.63;5001895;28;20045;-75
2022/02/28 00:50:28;;;;;;;40.28;23.70;;;;;;;3.20;75.05;102602.75;4999223;28;20170;-75
2022/02/28 00:52:53;;;;;;;45.20;24.40;;;;;;;3.17;74.36;102605.16;4999052;28;20034;-75
2022/02/28 00:55:19;;;;;;;42.42;23.42;;;;;;;3.13;74.45;102603.22;5001723;28;20048;-74
2022/02/28 00:57:44;;;;;;;39.45;22.58;;;;;;;3.12;74.35;102604.00;5000678;28;20029;-75
2022/02/28 01:00:13;;;;;;;39.80;22.90;;;;;;;3.15;74.27;102596.38;4999640;28;20404;-75
2022/02/28 01:02:39;;;;;;;38.50;21.40;;;;;;;3.17;73.71;102597.34;5001933;28;20046;-75
2022/02/28 01:05:05;;;;;;;36.20;20.80;;;;;;;3.19;73.58;102598.31;4999492;28;20041;-75
2022/02/28 01:07:31;;;;;;;35.83;19.83;;;;;;;3.08;74.19;102585.56;5000475;28;20075;-75
2022/02/28 01:09:56;;;;;;;38.15;21.23;;;;;;;2.99;73.99;102582.44;5001420;28;20069;-75
2022/02/28 01:12:22;;;;;;;33.78;19.98;;;;;;;3.06;74.26;102578.47;4998743;28;20042;-75
2022/02/28 01:14:48;;;;;;;37.75;21.92;;;;;;;3.08;74.11;102575.13;5000513;28;20034;-75
2022/02/28 01:17:14;;;;;;;38.53;20.90;;;;;;;3.11;73.79;102586.56;4995615;28;20034;-75
2022/02/28 01:19:41;;;;;;;34.90;21.33;;;;;;;3.03;73.75;102589.63;5015784;28;20159;-75
2022/02/28 01:22:09;;;;;;;34.72;19.08;;;;;;;3.04;74.06;102583.63;4997445;28;20034;-75
2022/02/28 01:24:37;;;;;;;41.88;21.77;;;;;;;3.06;73.74;102576.75;5001346;28;20398;-75
2022/02/28 01:27:02;;;;;;;39.08;20.50;;;;;;;3.04;73.61;102575.78;5000273;28;20026;-74
2022/02/28 01:29:27;;;;;;;38.58;21.33;;;;;;;3.11;73.50;102576.13;4999234;28;20393;-75
2022/02/28 01:31:53;;;;;;;39.58;22.50;;;;;;;3.18;73.56;102578.28;5001542;28;20099;-75
2022/02/28 01:34:19;;;;;;;44.28;23.17;;;;;;;3.23;73.00;102580.34;5014123;28;20035;-75
2022/02/28 01:36:44;;;;;;;42.85;22.30;;;;;;;3.09;73.29;102576.03;5000468;28;20036;-75
2022/02/28 01:39:10;;;;;;;40.22;22.83;;;;;;;3.04;73.82;102578.41;5000588;28;20034;-74
2022/02/28 01:41:35;;;;;;;39.28;22.23;;;;;;;3.00;73.96;102581.63;4997288;28;20031;-76
2022/02/28 01:44:04;;;;;;;44.13;22.27;;;;;;;3.02;74.27;102585.22;5008753;28;20479;-75
2022/02/28 01:46:30;;;;;;;37.15;20.10;;;;;;;3.14;73.60;102579.78;4999653;28;20034;-74
2022/02/28 01:48:55;;;;;;;36.38;20.40;;;;;;;3.22;73.81;102577.63;4995664;28;20129;-75
2022/02/28 01:51:20;;;;;;;38.20;22.45;;;;;;;3.26;73.43;102577.00;5007319;28;20037;-75
2022/02/28 01:53:46;;;;;;;40.40;21.52;;;;;;;3.25;73.52;102578.72;5013516;28;20041;-74
2022/02/28 01:56:12;;;;;;;40.92;22.25;;;;;;;3.22;73.03;102578.53;5000570;28;20081;-75
2022/02/28 01:58:40;;;;;;;39.40;21.70;;;;;;;3.20;73.08;102577.56;5016826;28;20067;-75
2022/02/28 02:01:07;;;;;;;39.47;20.67;;;;;;;3.18;73.11;102573.06;4995989;28;20030;-75
2022/02/28 02:03:33;;;;;;;41.33;21.38;;;;;;;3.17;72.91;102574.78;4998205;28;20045;-75
2022/02/28 02:05:59;;;;;;;40.60;23.08;;;;;;;3.13;73.01;102571.91;5000124;28;20038;-74
2022/02/28 02:08:26;;;;;;;39.55;22.55;;;;;;;3.17;73.19;102573.84;5015005;28;20042;-75
2022/02/28 02:10:52;;;;;;;36.90;21.55;;;;;;;3.25;73.25;102577.81;4997371;28;20035;-75
2022/02/28 02:13:17;;;;;;;37.13;21.27;;;;;;;3.25;72.80;102575.22;5016068;28;20045;-75
2022/02/28 02:15:43;;;;;;;34.03;18.80;;;;;;;3.17;73.25;102574.78;5010740;28;20167;-75
2022/02/28 02:18:10;;;;;;;33.63;16.95;;;;;;;3.16;72.92;102575.56;4999401;28;20496;-74
2022/02/28 02:20:37;;;;;;;33.38;18.40;;;;;;;3.17;73.07;102571.25;5000494;28;20041;-75
2022/02/28 02:23:07;;;;;;;34.90;19.65;;;;;;;3.16;72.82;102572.06;4999071;28;20084;-75
2022/02/28 02:25:34;;;;;;;33.80;18.88;;;;;;;3.21;72.66;102575.84;5002519;28;20040;-75
2022/02/28 02:28:00;;;;;;;33.15;19.08;;;;;;;3.27;72.68;102584.94;4995969;28;20505;-75
2022/02/28 02:30:28;;;;;;;33.05;19.30;;;;;;;3.23;72.60;102582.06;5001101;28;20500;-75
2022/02/28 02:32:55;;;;;;;31.55;19.45;;;;;;;3.12;72.33;102581.44;4998505;28;20450;-74
2022/02/28 02:35:20;;;;;;;33.20;18.63;;;;;;;3.09;72.48;102578.63;4999457;28;20030;-75
2022/02/28 02:37:46;;;;;;;33.55;17.42;;;;;;;3.08;72.21;102580.34;4998178;28;20133;-75
2022/02/28 02:40:12;;;;;;;30.98;18.35;;;;;;;3.13;72.10;102588.44;4996062;28;20469;-75
2022/02/28 02:42:38;;;;;;;30.05;17.63;;;;;;;3.15;71.99;102579.00;4998712;28;20029;-75
2022/02/28 02:45:04;;;;;;;30.48;17.50;;;;;;;3.14;72.04;102573.69;4998954;28;20446;-74
2022/02/28 02:47:29;;;;;;;32.78;17.13;;;;;;;3.04;71.68;102578.41;4996943;28;20034;-75
2022/02/28 02:50:08;;;;;;;31.17;17.80;;;;;;;3.07;71.73;102583.78;4996985;28;20238;-75
2022/02/28 02:52:35;;;;;;;34.05;18.58;;;;;;;3.12;71.62;102585.72;4997098;28;20065;-75
2022/02/28 02:55:01;;;;;;;31.15;17.55;;;;;;;3.19;71.70;102582.66;4999119;28;20030;-75
2022/02/28 02:57:29;;;;;;;29.42;18.13;;;;;;;3.17;71.50;102586.91;4997861;28;20562;-75
2022/02/28 02:59:59;;;;;;;32.83;17.92;;;;;;;3.20;71.48;102582.78;4997803;28;20117;-75
2022/02/28 03:02:30;;;;;;;32.15;17.27;;;;;;;3.15;71.36;102580.72;5014774;28;20030;-75
2022/02/28 03:04:56;;;;;;;33.97;18.45;;;;;;;3.10;71.58;102571.72;4996617;28;20062;-75
2022/02/28 03:07:22;;;;;;;38.30;18.55;;;;;;;3.11;71.82;102560.47;4998970;28;20599;-75
2022/02/28 03:09:48;;;;;;;32.63;18.65;;;;;;;3.14;72.05;102571.06;5014629;28;20042;-75
2022/02/28 03:12:14;;;;;;;31.35;17.45;;;;;;;3.21;71.87;102561.06;4995674;28;20034;-75
2022/02/28 03:14:40;;;;;;;30.52;18.02;;;;;;;3.28;71.73;102562.34;4998582;28;20530;-75
2022/02/28 03:17:07;;;;;;;31.92;17.92;;;;;;;3.23;71.27;102562.06;4994306;28;20044;-75
2022/02/28 03:19:33;;;;;;;32.92;18.55;;;;;;;3.25;71.55;102556.94;5014520;28;20045;-75
2022/02/28 03:21:59;;;;;;;33.95;16.90;;;;;;;3.24;71.28;102549.91;4994578;28;20046;-75
2022/02/28 03:24:25;;;;;;;29.38;17.27;;;;;;;3.25;70.96;102552.63;5002155;28;20048;-75
2022/02/28 03:26:51;;;;;;;34.88;18.65;;;;;;;3.21;70.45;102548.03;5013546;28;20035;-75
2022/02/28 03:29:17;;;;;;;31.67;17.85;;;;;;;3.21;70.63;102550.63;5002972;28;20467;-75
2022/02/28 03:31:42;;;;;;;36.33;18.48;;;;;;;3.20;70.43;102553.19;5000175;28;20121;-75
2022/02/28 03:34:09;;;;;;;35.20;19.58;;;;;;;3.01;70.71;102556.44;5015941;28;20117;-75
2022/02/28 03:36:34;;;;;;;34.08;18.20;;;;;;;2.98;71.58;102551.94;5001192;28;20121;-74
2022/02/28 03:39:08;;;;;;;32.83;19.35;;;;;;;3.01;71.35;102546.91;5018258;28;20125;-75
2022/02/28 03:41:33;;;;;;;34.25;19.10;;;;;;;2.97;70.92;102552.75;4998813;28;20130;-75
2022/02/28 03:43:59;;;;;;;32.83;18.30;;;;;;;2.91;71.01;102548.88;5001460;28;20030;-74
2022/02/28 03:46:31;;;;;;;36.73;19.40;;;;;;;2.89;71.32;102556.66;5014601;28;20404;-75
2022/02/28 03:49:22;;;;;;;58.42;30.33;;;;;;;2.99;71.73;102555.47;5003329;28;20042;-75
2022/02/28 03:52:09;;;;;;;35.40;19.77;;;;;;;3.01;71.15;102543.38;4998315;28;20039;-75
2022/02/28 03:54:56;;;;;;;32.08;17.73;;;;;;;3.01;71.16;102536.47;5009357;28;20055;-75
2022/02/28 03:57:22;;;;;;;32.33;17.67;;;;;;;3.00;71.40;102539.88;5001267;28;20060;-75
2022/02/28 03:59:48;;;;;;;29.17;16.75;;;;;;;3.04;71.33;102536.66;5000994;28;20090;-75
2022/02/28 04:02:13;;;;;;;34.55;18.88;;;;;;;3.12;71.16;102537.09;4996941;28;20022;-75
2022/02/28 04:04:44;;;;;;;30.35;17.88;;;;;;;3.15;70.46;102545.09;5001784;28;20070;-75
2022/02/28 04:07:09;;;;;;;31.50;17.90;;;;;;;3.16;70.85;102531.22;4995487;28;20065;-75
2022/02/28 04:09:36;;;;;;;33.13;17.92;;;;;;;3.18;70.65;102532.19;5016065;28;20099;-75
2022/02/28 04:12:03;;;;;;;32.30;17.05;;;;;;;3.18;70.69;102533.91;4999094;28;20038;-75
2022/02/28 04:14:29;;;;;;;33.10;18.60;;;;;;;3.14;70.44;102532.81;5018039;28;20402;-76
2022/02/28 04:16:55;;;;;;;35.55;19.40;;;;;;;3.07;70.23;102530.72;5015426;28;20027;-75
2022/02/28 04:19:36;;;;;;;29.52;17.58;;;;;;;3.07;70.63;102529.00;4999945;28;20129;-75
2022/02/28 04:22:02;;;;;;;30.73;17.33;;;;;;;3.03;70.06;102529.63;4999497;28;20160;-75
2022/02/28 04:24:28;;;;;;;36.00;18.08;;;;;;;2.98;69.99;102531.06;5000264;28;20058;-75
2022/02/28 04:26:55;;;;;;;32.13;18.88;;;;;;;2.94;70.90;102529.13;5013711;28;20492;-75
2022/02/28 04:29:21;;;;;;;32.53;18.05;;;;;;;3.00;70.02;102531.16;5001956;28;20460;-75
2022/02/28 04:31:49;;;;;;;30.42;17.42;;;;;;;3.03;70.63;102524.41;5015029;28;20545;-75
2022/02/28 04:34:15;;;;;;;33.80;19.15;;;;;;;3.06;69.82;102524.56;4999175;28;20488;-75
2022/02/28 04:36:41;;;;;;;32.35;20.23;;;;;;;3.02;69.73;102520.00;5016856;28;20033;-75
2022/02/28 04:39:07;;;;;;;37.63;20.60;;;;;;;2.94;69.93;102517.78;5004287;28;20030;-75
2022/02/28 04:41:32;;;;;;;33.28;19.23;;;;;;;2.98;70.17;102512.81;5014504;28;20042;-75
2022/02/28 04:43:58;;;;;;;30.25;17.25;;;;;;;3.01;70.09;102515.63;5000093;28;20042;-74
2022/02/28 04:46:26;;;;;;;33.00;18.73;;;;;;;3.04;69.65;102507.97;5016589;28;20058;-75
2022/02/28 04:48:53;;;;;;;32.85;18.15;;;;;;;3.02;70.03;102506.97;4997998;28;20729;-75
2022/02/28 04:51:30;;;;;;;32.33;19.05;;;;;;;3.04;70.34;102507.97;4998990;28;20030;-75
2022/02/28 04:53:56;;;;;;;34.65;20.13;;;;;;;3.00;69.69;102503.38;5008931;28;20033;-75
2022/02/28 04:56:22;;;;;;;30.98;18.77;;;;;;;2.89;69.54;102506.19;5008562;28;20392;-75
2022/02/28 04:58:47;;;;;;;32.33;18.17;;;;;;;2.82;69.36;102502.31;4995424;28;20644;-75
2022/02/28 05:01:17;;;;;;;35.25;19.80;;;;;;;2.78;69.11;102489.94;5016164;28;20025;-75
2022/02/28 05:03:45;;;;;;;35.63;20.25;;;;;;;2.74;69.14;102494.06;4997943;28;20030;-75
2022/02/28 05:06:10;;;;;;;30.58;17.52;;;;;;;2.67;69.29;102499.72;5016661;28;20514;-74
2022/02/28 05:08:42;;;;;;;29.10;16.50;;;;;;;2.60;69.55;102495.91;5017639;28;20476;-75
2022/02/28 05:11:08;;;;;;;34.03;18.95;;;;;;;2.50;69.86;102501.38;5001632;28;20065;-75
2022/02/28 05:13:33;;;;;;;33.38;17.88;;;;;;;2.45;69.60;102510.63;4997637;28;20503;-75
2022/02/28 05:16:00;;;;;;;31.20;17.45;;;;;;;2.46;70.13;102512.41;4999977;28;20411;-75
2022/02/28 05:18:25;;;;;;;28.95;17.75;;;;;;;2.35;69.45;102500.47;4996090;28;20532;-75
2022/02/28 05:20:51;;;;;;;32.50;18.45;;;;;;;2.25;69.73;102508.56;5016254;28;20042;-75
2022/02/28 05:23:16;;;;;;;30.63;17.70;;;;;;;2.08;69.98;102511.06;5004562;28;20499;-74
2022/02/28 05:25:44;;;;;;;29.38;17.65;;;;;;;2.04;70.78;102506.47;5014694;28;20580;-75
2022/02/28 05:28:10;;;;;;;31.23;16.45;;;;;;;2.09;70.71;102512.84;5007591;28;20034;-75
2022/02/28 05:30:35;;;;;;;33.90;18.25;;;;;;;2.06;70.82;102512.66;4998007;28;20112;-75
2022/02/28 05:33:06;;;;;;;32.28;18.27;;;;;;;2.10;70.72;102512.06;5013706;28;20066;-75
2022/02/28 05:35:34;;;;;;;36.85;19.45;;;;;;;2.07;70.88;102521.38;4998932;28;20430;-75
2022/02/28 05:38:06;;;;;;;31.27;16.85;;;;;;;2.10;71.32;102526.78;5016915;28;20055;-75
2022/02/28 05:40:36;;;;;;;27.77;16.83;;;;;;;2.22;70.71;102526.63;5014121;28;20117;-75
2022/02/28 05:43:02;;;;;;;32.25;16.88;;;;;;;2.34;70.58;102532.56;4998455;28;20026;-75
2022/02/28 05:45:29;;;;;;;32.25;16.17;;;;;;;2.39;70.47;102531.13;4998842;28;20637;-76
2022/02/28 05:48:14;;;;;;;31.48;17.73;;;;;;;2.46;70.14;102535.88;5000775;28;20103;-75
2022/02/28 05:50:39;;;;;;;31.58;16.90;;;;;;;2.47;69.56;102532.47;4997133;28;20035;-75
2022/02/28 05:53:05;;;;;;;31.30;17.20;;;;;;;2.49;69.53;102536.09;4998118;28;20030;-75
2022/02/28 05:55:30;;;;;;;26.15;16.40;;;;;;;2.46;69.43;102532.38;5000451;28;20036;-75
2022/02/28 05:57:56;;;;;;;31.60;17.88;;;;;;;2.46;69.78;102535.88;5000049;28;20030;-75
2022/02/28 06:00:21;;;;;;;36.90;20.67;;;;;;;2.45;69.31;102546.22;4998468;28;20046;-75
2022/02/28 06:02:48;;;;;;;35.22;19.58;;;;;;;2.35;69.56;102536.97;5001026;28;20044;-75
2022/02/28 06:05:14;;;;;;;33.90;19.75;;;;;;;2.31;70.50;102537.59;5001449;28;20539;-75
2022/02/28 06:07:39;;;;;;;33.50;19.52;;;;;;;2.30;70.15;102539.28;4999550;28;20141;-74
2022/02/28 06:10:05;;;;;;;37.75;18.60;;;;;;;2.33;70.45;102546.38;5000483;28;20042;-75
2022/02/28 06:12:30;;;;;;;33.20;18.38;;;;;;;2.38;70.13;102545.88;4997852;28;20058;-75
2022/02/28 06:14:55;;;;;;;31.40;18.23;;;;;;;2.42;69.81;102552.16;5000809;28;20664;-75
2022/02/28 06:17:21;;;;;;;32.78;18.00;;;;;;;2.45;69.88;102557.56;4999056;28;20038;-75
2022/02/28 06:19:47;;;;;;;30.20;16.38;;;;;;;2.49;70.02;102558.63;4999042;28;20045;-75
2022/02/28 06:22:13;;;;;;;31.83;17.42;;;;;;;2.50;69.36;102563.94;4996862;28;20050;-75
2022/02/28 06:24:39;;;;;;;28.77;17.10;;;;;;;2.56;69.61;102561.69;4997854;28;20129;-75
2022/02/28 06:27:04;;;;;;;29.83;16.40;;;;;;;2.66;69.58;102567.44;5000086;28;20026;-74
2022/02/28 06:29:30;;;;;;;30.98;17.92;;;;;;;2.69;69.04;102575.44;4999238;28;20551;-75
2022/02/28 06:31:55;;;;;;;29.63;16.33;;;;;;;2.75;68.61;102573.19;4998243;28;20053;-75
2022/02/28 06:34:20;;;;;;;32.38;17.65;;;;;;;2.77;68.84;102576.78;5004315;28;20500;-75
2022/02/28 06:36:46;;;;;;;29.90;16.80;;;;;;;2.84;68.21;102569.41;4997941;28;20032;-74
2022/02/28 06:39:11;;;;;;;32.22;16.65;;;;;;;2.87;68.37;102571.28;4999605;28;20423;-75
2022/02/28 06:41:37;;;;;;;30.17;18.02;;;;;;;2.90;68.02;102579.28;4999330;28;20514;-74
2022/02/28 06:44:03;;;;;;;31.15;18.20;;;;;;;2.94;68.20;102583.00;4997916;28;20141;-74
2022/02/28 06:46:28;;;;;;;34.42;19.92;;;;;;;2.97;67.75;102588.38;5000547;28;20121;-75
2022/02/28 06:48:53;;;;;;;35.78;19.20;;;;;;;2.96;68.29;102590.09;4998296;28;20121;-76
2022/02/28 06:51:19;;;;;;;33.22;18.70;;;;;;;2.98;67.87;102588.47;4998692;28;20055;-76
2022/02/28 06:53:45;;;;;;;31.23;18.80;;;;;;;3.01;68.15;102595.56;4996808;28;20171;-76
2022/02/28 06:56:10;;;;;;;31.25;17.42;;;;;;;3.13;67.58;102590.16;5000516;28;20030;-76
2022/02/28 06:58:35;;;;;;;30.25;17.58;;;;;;;3.12;67.90;102604.00;4996959;28;20040;-76
2022/02/28 07:01:01;;;;;;;34.97;19.80;;;;;;;3.21;67.34;102605.44;4997881;28;20049;-76
2022/02/28 07:03:47;;;;;;;30.75;18.48;;;;;;;3.25;67.49;102598.69;4997729;28;20050;-76
2022/02/28 07:06:20;;;;;;;35.10;21.15;;;;;;;3.32;67.27;102597.31;4998569;28;20038;-76
2022/02/28 07:08:47;;;;;;;32.63;19.42;;;;;;;3.29;66.87;102595.44;5000395;28;20060;-76
2022/02/28 07:11:14;;;;;;;39.22;21.23;;;;;;;3.26;67.39;102596.16;5009533;28;20039;-76
2022/02/28 07:13:40;;;;;;;30.58;18.23;;;;;;;3.30;67.35;102592.00;4998999;28;20038;-76
2022/02/28 07:16:05;;;;;;;33.22;18.40;;;;;;;3.30;67.29;102597.22;4997629;28;20103;-76
2022/02/28 07:18:30;;;;;;;30.35;19.08;;;;;;;3.29;66.52;102596.31;5000121;28;20038;-76
2022/02/28 07:20:56;;;;;;;32.65;19.05;;;;;;;3.29;66.96;102596.31;5010099;28;20121;-76
2022/02/28 07:23:21;;;;;;;31.83;18.35;;;;;;;3.34;66.89;102604.41;4997129;28;20084;-76
2022/02/28 07:25:47;;;;;;;31.60;18.92;;;;;;;3.44;66.83;102604.13;4997946;28;20088;-76
2022/02/28 07:28:12;;;;;;;27.23;15.25;;;;;;;3.59;66.32;102613.63;4999981;28;20238;-76
2022/02/28 07:30:38;;;;;;;30.65;17.35;;;;;;;3.58;65.89;102624.88;4996878;28;20031;-76
2022/02/28 07:33:03;;;;;;;33.00;18.63;;;;;;;3.57;66.58;102623.09;4998975;28;20519;-76
2022/02/28 07:35:28;;;;;;;32.70;19.33;;;;;;;3.68;66.09;102621.97;4998592;28;20030;-76
2022/02/28 07:37:54;;;;;;;32.67;18.33;;;;;;;3.72;65.46;102619.63;4997517;28;20113;-76
2022/02/28 07:40:19;;;;;;;30.63;17.52;;;;;;;3.81;66.01;102624.44;4999752;28;20033;-76
2022/02/28 07:42:45;;;;;;;34.92;19.40;;;;;;;3.88;64.88;102607.41;4997020;28;20451;-77
2022/02/28 07:45:11;;;;;;;28.33;18.15;;;;;;;3.83;65.18;102611.47;4998833;28;20033;-76
2022/02/28 07:47:37;;;;;;;35.67;20.95;;;;;;;3.85;65.09;102615.06;4998729;28;20450;-77
2022/02/28 07:50:04;;;;;;;28.23;16.88;;;;;;;3.95;65.48;102602.56;4996840;28;20050;-76
2022/02/28 07:52:30;;;;;;;29.13;17.17;;;;;;;4.09;64.95;102616.41;4994577;28;20044;-76
2022/02/28 07:54:55;;;;;;;28.77;17.80;;;;;;;4.15;64.73;102615.81;4997788;28;20034;-76
2022/02/28 07:57:21;;;;;;;33.25;19.73;;;;;;;4.23;64.65;102616.22;4997906;28;20511;-76
2022/02/28 07:59:46;;;;;;;38.97;23.60;;;;;;;4.27;64.17;102621.72;4999347;28;20506;-76
2022/02/28 08:02:11;;;;;;;34.45;19.73;;;;;;;4.21;64.43;102620.47;4996405;28;20083;-76
2022/02/28 08:04:37;;;;;;;28.23;18.10;;;;;;;4.25;62.97;102617.22;4999126;28;20041;-76
2022/02/28 08:07:03;;;;;;;29.75;16.92;;;;;;;4.33;63.83;102622.03;5009553;28;20049;-77
2022/02/28 08:09:29;;;;;;;31.23;18.80;;;;;;;4.43;63.54;102626.03;4999893;28;20476;-76
2022/02/28 08:11:55;;;;;;;30.88;18.00;;;;;;;4.61;62.71;102626.06;5004665;28;20051;-76
2022/02/28 08:14:20;;;;;;;32.25;18.20;;;;;;;4.66;62.01;102631.53;5000320;28;20085;-76
2022/02/28 08:16:46;;;;;;;33.47;20.75;;;;;;;4.60;62.09;102629.50;5001734;28;20129;-76
2022/02/28 08:19:11;;;;;;;31.25;19.55;;;;;;;4.57;62.19;102631.97;5001756;28;20038;-76
2022/02/28 08:21:36;;;;;;;29.13;16.88;;;;;;;4.63;61.71;102627.03;4999750;28;20555;-77
2022/02/28 08:24:02;;;;;;;30.83;17.63;;;;;;;4.63;61.28;102626.16;4999418;28;20038;-76
2022/02/28 08:26:27;;;;;;;31.15;18.65;;;;;;;4.76;61.32;102616.38;5002262;28;20045;-76
2022/02/28 08:28:53;;;;;;;34.90;17.98;;;;;;;4.72;61.83;102626.63;5001054;28;20046;-76
2022/02/28 08:31:18;;;;;;;27.80;17.00;;;;;;;4.70;61.69;102621.31;5000224;28;20062;-77
2022/02/28 08:33:43;;;;;;;34.50;19.23;;;;;;;4.82;62.11;102619.34;5002679;28;20034;-76
2022/02/28 08:36:09;;;;;;;31.80;18.17;;;;;;;4.99;60.96;102621.91;4999607;28;20038;-76
2022/02/28 08:38:34;;;;;;;29.70;17.70;;;;;;;5.00;61.21;102623.69;5005016;28;20037;-76
2022/02/28 08:40:59;;;;;;;31.80;18.88;;;;;;;5.09;61.62;102621.53;5000821;28;20053;-76
2022/02/28 08:43:26;;;;;;;31.50;17.48;;;;;;;5.08;60.64;102627.56;4998973;28;20403;-77
2022/02/28 08:45:52;;;;;;;30.00;17.45;;;;;;;4.97;60.60;102639.22;5014259;28;20038;-76
2022/02/28 08:48:18;;;;;;;35.75;18.25;;;;;;;4.83;60.71;102641.16;5001826;28;20113;-76
2022/02/28 08:50:43;;;;;;;30.73;17.73;;;;;;;4.86;60.25;102640.41;5002536;28;20033;-76
2022/02/28 08:53:09;;;;;;;32.25;18.50;;;;;;;4.79;60.36;102633.97;4998188;28;20056;-77
2022/02/28 08:55:34;;;;;;;33.55;18.63;;;;;;;4.62;60.23;102635.72;4999266;28;20030;-76
2022/02/28 08:57:59;;;;;;;32.35;19.50;;;;;;;4.40;60.49;102633.69;5002204;28;20034;-76
2022/02/28 09:00:25;;;;;;;30.65;18.33;;;;;;;4.33;61.43;102631.59;5000094;28;20034;-76
2022/02/28 09:02:50;;;;;;;31.42;19.08;;;;;;;4.18;61.45;102637.78;5000273;28;20380;-76
2022/02/28 09:05:15;;;;;;;34.97;20.08;;;;;;;4.18;61.28;102643.00;5001529;28;20034;-76
2022/02/28 09:07:41;;;;;;;56.83;31.35;;;;;;;4.11;61.93;102634.75;4998900;28;20046;-76
2022/02/28 09:10:07;;;;;;;55.75;31.65;;;;;;;4.29;62.54;102633.13;5001702;28;20030;-76
2022/02/28 09:12:32;;;;;;;49.58;28.25;;;;;;;4.31;62.57;102636.72;5000181;28;20609;-76
2022/02/28 09:14:58;;;;;;;43.13;23.73;;;;;;;4.49;62.52;102633.28;5000023;28;20084;-76
2022/02/28 09:17:24;;;;;;;45.63;26.05;;;;;;;4.52;61.90;102629.09;5001945;28;20075;-76
2022/02/28 09:19:49;;;;;;;44.20;24.38;;;;;;;4.43;61.90;102630.34;4998589;28;20034;-76
2022/02/28 09:22:15;;;;;;;36.90;21.77;;;;;;;4.27;61.69;102631.25;4998829;28;20035;-76
2022/02/28 09:24:41;;;;;;;39.47;20.40;;;;;;;4.27;61.90;102626.94;5015259;28;20116;-76
2022/02/28 09:27:07;;;;;;;31.75;18.77;;;;;;;4.30;62.04;102631.44;5001461;28;20147;-76
2022/02/28 09:29:33;;;;;;;32.50;17.52;;;;;;;4.31;62.07;102621.03;4998557;28;20030;-76
2022/02/28 09:31:59;;;;;;;31.60;17.67;;;;;;;4.22;61.80;102623.19;5003792;28;20506;-77
2022/02/28 09:34:25;;;;;;;29.67;16.90;;;;;;;4.21;61.96;102626.59;5000158;28;20042;-76
2022/02/28 09:36:53;;;;;;;29.65;17.02;;;;;;;4.20;62.30;102627.41;4999145;28;20164;-76
2022/02/28 09:39:19;;;;;;;31.52;17.10;;;;;;;4.32;61.82;102630.69;5001460;28;20045;-76
2022/02/28 09:42:04;;;;;;;29.08;16.08;;;;;;;4.36;61.88;102624.78;5001271;28;20056;-76
2022/02/28 09:44:49;;;;;;;28.13;17.17;;;;;;;4.39;62.60;102632.78;5000501;28;20106;-76
2022/02/28 09:47:33;;;;;;;32.10;17.33;;;;;;;4.31;62.36;102639.34;5001120;28;20053;-76
2022/02/28 09:50:18;;;;;;;30.95;18.98;;;;;;;4.34;62.05;102636.88;5000546;28;20069;-76
2022/02/28 09:53:02;;;;;;;31.98;19.02;;;;;;;4.31;62.01;102631.50;4996564;28;20573;-76
2022/02/28 09:55:47;;;;;;;34.83;19.20;;;;;;;4.36;62.64;102642.19;4999971;28;20415;-76
2022/02/28 09:58:27;;;;;;;30.58;18.58;;;;;;;4.47;62.11;102640.16;4997169;28;20042;-76
2022/02/28 10:00:53;;;;;;;29.45;17.27;;;;;;;4.56;62.44;102635.41;4998265;28;20034;-77
2022/02/28 10:03:19;;;;;;;33.40;18.55;;;;;;;4.62;62.52;102638.34;5015539;28;20087;-76
2022/02/28 10:05:44;;;;;;;28.75;16.75;;;;;;;4.69;61.76;102639.53;4996790;28;20438;-76
2022/02/28 10:08:14;;;;;;;28.20;16.85;;;;;;;4.70;61.58;102642.25;5000629;28;20034;-76
2022/02/28 10:10:40;;;;;;;27.25;16.10;;;;;;;4.71;61.77;102641.41;5014566;28;20034;-76
2022/02/28 10:13:05;;;;;;;28.50;15.68;;;;;;;4.76;61.91;102645.16;4998492;28;20491;-76
2022/02/28 10:15:31;;;;;;;30.00;16.70;;;;;;;4.50;60.66;102642.91;5001185;28;20044;-76
2022/02/28 10:18:01;;;;;;;27.75;16.20;;;;;;;4.56;61.93;102641.53;5000517;28;20522;-76
2022/02/28 10:20:33;;;;;;;28.70;16.35;;;;;;;4.74;62.12;102638.97;4999621;28;20461;-76
2022/02/28 10:23:05;;;;;;;25.55;15.40;;;;;;;4.91;61.66;102639.81;4995777;28;20099;-76
2022/02/28 10:25:38;;;;;;;31.40;17.35;;;;;;;4.95;61.37;102636.56;4997571;28;20069;-76
2022/02/28 10:28:19;;;;;;;34.30;18.85;;;;;;;4.97;61.36;102634.00;4997678;28;20112;-76
2022/02/28 10:31:05;;;;;;;27.60;15.40;;;;;;;5.04;60.47;102636.13;5002006;28;20072;-76
2022/02/28 10:34:11;;;;;;;22.55;13.63;;;;;;;5.02;60.26;102636.03;4999960;28;20041;-76
2022/02/28 10:37:08;;;;;;;30.17;17.00;;;;;;;5.03;60.45;102634.28;4999044;28;20038;-77
2022/02/28 10:39:37;;;;;;;24.08;14.70;;;;;;;5.13;59.81;102625.19;4998362;28;20042;-76
2022/02/28 10:42:16;;;;;;;29.35;16.88;;;;;;;5.24;60.23;102627.53;5000401;28;20403;-77
2022/02/28 10:44:42;;;;;;;26.15;15.18;;;;;;;5.22;59.27;102623.94;5000315;28;20040;-76
2022/02/28 10:47:11;;;;;;;29.20;16.00;;;;;;;5.25;59.53;102621.47;4997296;28;20046;-76
2022/02/28 10:49:38;;;;;;;26.92;15.63;;;;;;;5.31;60.17;102626.09;4998245;28;20030;-76
2022/02/28 10:52:08;;;;;;;28.67;16.15;;;;;;;5.25;59.30;102617.94;4996345;28;20045;-77
2022/02/28 10:54:45;;;;;;;31.35;16.95;;;;;;;5.36;59.59;102614.13;5006703;28;20038;-76
2022/02/28 10:57:21;;;;;;;25.02;14.40;;;;;;;5.51;59.51;102619.22;5011291;28;20462;-76
2022/02/28 10:59:54;;;;;;;25.38;14.88;;;;;;;5.63;59.30;102626.75;4997878;28;20049;-76
2022/02/28 11:02:28;;;;;;;;;;;;;;;5.61;57.76;102625.81;4998183;28;20085;-76
2022/02/28 11:05:08;;;;;;;21.27;12.48;;;;;;;5.63;56.08;102624.13;4997889;28;19917;-76
2022/02/28 11:07:41;;;;;;;25.52;14.07;;;;;;;5.68;57.41;102618.28;4995968;28;20053;-76
2022/02/28 11:10:08;;;;;;;24.90;13.88;;;;;;;5.60;56.41;102618.75;4998701;28;20049;-76
2022/02/28 11:12:33;;;;;;;24.83;13.57;;;;;;;5.56;57.07;102616.81;4999462;28;20553;-76
2022/02/28 11:15:01;;;;;;;25.83;14.75;;;;;;;5.64;57.51;102618.97;4995812;28;20042;-76
2022/02/28 11:17:29;;;;;;;22.40;11.95;;;;;;;5.73;57.26;102615.88;4999407;28;20077;-76
2022/02/28 11:19:58;;;;;;;22.02;12.60;;;;;;;5.77;56.69;102609.09;4997689;28;20438;-76